sensor_id;sensor_type;location;lat;lon;timestamp;pressure;altitude;pressure_sealevel;temperature
73685;BMP280;61985;51.070;14.064;2022-11-06T00:02:24;99104.16;;;1.99
73685;BMP280;61985;51.070;14.064;2022-11-06T00:04:49;99110.59;;;1.98
73685;BMP280;61985;51.070;14.064;2022-11-06T00:07:14;99093.69;;;2.06
73685;BMP280;61985;51.070;14.064;2022-11-06T00:09:40;99109.50;;;2.19
73685;BMP280;61985;51.070;14.064;2022-11-06T00:12:05;99105.38;;;2.02
73685;BMP280;61985;51.070;14.064;2022-11-06T00:14:31;99109.56;;;1.83
73685;BMP280;61985;51.070;14.064;2022-11-06T00:16:56;99103.47;;;1.83
73685;BMP280;61985;51.070;14.064;2022-11-06T00:19:21;99105.72;;;1.80
73685;BMP280;61985;51.070;14.064;2022-11-06T00:21:47;99099.28;;;1.82
73685;BMP280;61985;51.070;14.064;2022-11-06T00:24:13;99098.06;;;1.79
73685;BMP280;61985;51.070;14.064;2022-11-06T00:26:39;99097.91;;;1.88
73685;BMP280;61985;51.070;14.064;2022-11-06T00:29:05;99088.66;;;1.82
73685;BMP280;61985;51.070;14.064;2022-11-06T00:31:35;99106.59;;;1.69
73685;BMP280;61985;51.070;14.064;2022-11-06T00:34:02;99109.25;;;1.69
73685;BMP280;61985;51.070;14.064;2022-11-06T00:36:29;99109.69;;;1.71
73685;BMP280;61985;51.070;14.064;2022-11-06T00:38:55;99109.59;;;1.67
73685;BMP280;61985;51.070;14.064;2022-11-06T00:41:22;99110.38;;;1.68
73685;BMP280;61985;51.070;14.064;2022-11-06T00:43:49;99111.81;;;1.65
73685;BMP280;61985;51.070;14.064;2022-11-06T00:46:15;99106.94;;;1.67
73685;BMP280;61985;51.070;14.064;2022-11-06T00:48:41;99108.06;;;1.66
73685;BMP280;61985;51.070;14.064;2022-11-06T00:51:10;99111.53;;;1.70
73685;BMP280;61985;51.070;14.064;2022-11-06T00:53:36;99110.16;;;1.76
73685;BMP280;61985;51.070;14.064;2022-11-06T00:56:06;99107.16;;;1.78
73685;BMP280;61985;51.070;14.064;2022-11-06T00:58:33;99104.84;;;1.76
73685;BMP280;61985;51.070;14.064;2022-11-06T01:01:12;99104.88;;;1.60
73685;BMP280;61985;51.070;14.064;2022-11-06T01:03:39;99108.63;;;1.75
73685;BMP280;61985;51.070;14.064;2022-11-06T01:06:14;99099.84;;;1.55
73685;BMP280;61985;51.070;14.064;2022-11-06T01:08:39;99101.72;;;1.55
73685;BMP280;61985;51.070;14.064;2022-11-06T01:11:20;99100.63;;;1.56
73685;BMP280;61985;51.070;14.064;2022-11-06T01:13:49;99101.31;;;1.53
73685;BMP280;61985;51.070;14.064;2022-11-06T01:16:15;99093.75;;;1.55
73685;BMP280;61985;51.070;14.064;2022-11-06T01:18:42;99089.91;;;1.52
73685;BMP280;61985;51.070;14.064;2022-11-06T01:21:22;99090.50;;;1.45
73685;BMP280;61985;51.070;14.064;2022-11-06T01:23:59;99098.38;;;1.58
73685;BMP280;61985;51.070;14.064;2022-11-06T01:26:25;99086.75;;;1.47
73685;BMP280;61985;51.070;14.064;2022-11-06T01:28:51;99087.38;;;1.40
73685;BMP280;61985;51.070;14.064;2022-11-06T01:31:19;99092.25;;;1.38
73685;BMP280;61985;51.070;14.064;2022-11-06T01:33:45;99086.47;;;1.32
73685;BMP280;61985;51.070;14.064;2022-11-06T01:36:13;99086.28;;;1.25
73685;BMP280;61985;51.070;14.064;2022-11-06T01:38:40;99093.22;;;1.30
73685;BMP280;61985;51.070;14.064;2022-11-06T01:41:06;99094.00;;;1.30
73685;BMP280;61985;51.070;14.064;2022-11-06T01:43:54;99101.00;;;1.38
73685;BMP280;61985;51.070;14.064;2022-11-06T01:46:22;99097.34;;;1.27
73685;BMP280;61985;51.070;14.064;2022-11-06T01:51:24;99086.88;;;1.34
73685;BMP280;61985;51.070;14.064;2022-11-06T01:53:51;99092.88;;;1.31
73685;BMP280;61985;51.070;14.064;2022-11-06T01:56:17;99082.34;;;1.19
73685;BMP280;61985;51.070;14.064;2022-11-06T01:58:45;99086.28;;;1.25
73685;BMP280;61985;51.070;14.064;2022-11-06T02:01:13;99086.56;;;1.20
73685;BMP280;61985;51.070;14.064;2022-11-06T02:03:41;99083.91;;;1.20
73685;BMP280;61985;51.070;14.064;2022-11-06T02:06:08;99082.13;;;1.24
73685;BMP280;61985;51.070;14.064;2022-11-06T02:08:34;99082.63;;;1.14
73685;BMP280;61985;51.070;14.064;2022-11-06T02:11:00;99067.91;;;1.16
73685;BMP280;61985;51.070;14.064;2022-11-06T02:18:54;99071.75;;;1.19
73685;BMP280;61985;51.070;14.064;2022-11-06T02:24:35;99062.66;;;1.20
73685;BMP280;61985;51.070;14.064;2022-11-06T02:29:32;99064.97;;;1.21
73685;BMP280;61985;51.070;14.064;2022-11-06T02:32:03;99068.50;;;1.25
73685;BMP280;61985;51.070;14.064;2022-11-06T02:34:31;99064.22;;;1.21
73685;BMP280;61985;51.070;14.064;2022-11-06T02:37:02;99064.91;;;1.18
73685;BMP280;61985;51.070;14.064;2022-11-06T02:39:30;99060.03;;;1.20
73685;BMP280;61985;51.070;14.064;2022-11-06T02:41:58;99071.91;;;1.26
73685;BMP280;61985;51.070;14.064;2022-11-06T02:44:27;99064.03;;;1.14
73685;BMP280;61985;51.070;14.064;2022-11-06T02:46:56;99063.44;;;1.04
73685;BMP280;61985;51.070;14.064;2022-11-06T02:49:43;99054.53;;;0.97
73685;BMP280;61985;51.070;14.064;2022-11-06T02:52:26;99057.28;;;1.00
73685;BMP280;61985;51.070;14.064;2022-11-06T02:55:14;99058.41;;;0.99
73685;BMP280;61985;51.070;14.064;2022-11-06T02:57:49;99059.25;;;1.03
73685;BMP280;61985;51.070;14.064;2022-11-06T03:00:16;99052.16;;;1.07
73685;BMP280;61985;51.070;14.064;2022-11-06T03:07:57;99042.47;;;1.15
73685;BMP280;61985;51.070;14.064;2022-11-06T03:10:30;99047.84;;;1.19
73685;BMP280;61985;51.070;14.064;2022-11-06T03:13:03;99042.75;;;1.10
73685;BMP280;61985;51.070;14.064;2022-11-06T03:15:53;99049.31;;;1.00
73685;BMP280;61985;51.070;14.064;2022-11-06T03:18:28;99050.69;;;0.94
73685;BMP280;61985;51.070;14.064;2022-11-06T03:23:33;99045.03;;;0.80
73685;BMP280;61985;51.070;14.064;2022-11-06T03:26:23;99046.25;;;0.82
73685;BMP280;61985;51.070;14.064;2022-11-06T03:28:50;99046.59;;;0.81
73685;BMP280;61985;51.070;14.064;2022-11-06T03:31:22;99051.97;;;0.84
73685;BMP280;61985;51.070;14.064;2022-11-06T03:33:53;99048.22;;;0.85
73685;BMP280;61985;51.070;14.064;2022-11-06T03:36:24;99053.88;;;0.84
73685;BMP280;61985;51.070;14.064;2022-11-06T03:38:54;99051.03;;;1.08
73685;BMP280;61985;51.070;14.064;2022-11-06T03:41:40;99055.75;;;0.83
73685;BMP280;61985;51.070;14.064;2022-11-06T03:44:11;99044.97;;;0.76
73685;BMP280;61985;51.070;14.064;2022-11-06T03:46:43;99041.53;;;0.76
73685;BMP280;61985;51.070;14.064;2022-11-06T03:49:14;99048.47;;;0.96
73685;BMP280;61985;51.070;14.064;2022-11-06T03:51:46;99051.97;;;0.84
73685;BMP280;61985;51.070;14.064;2022-11-06T03:54:18;99052.66;;;0.81
73685;BMP280;61985;51.070;14.064;2022-11-06T03:56:56;99039.06;;;0.83
73685;BMP280;61985;51.070;14.064;2022-11-06T03:59:26;99048.38;;;0.77
73685;BMP280;61985;51.070;14.064;2022-11-06T04:01:54;99046.06;;;0.75
73685;BMP280;61985;51.070;14.064;2022-11-06T04:04:23;99040.44;;;0.77
73685;BMP280;61985;51.070;14.064;2022-11-06T04:06:55;99039.75;;;0.80
73685;BMP280;61985;51.070;14.064;2022-11-06T04:09:23;99041.09;;;0.89
73685;BMP280;61985;51.070;14.064;2022-11-06T04:12:10;99037.84;;;0.80
73685;BMP280;61985;51.070;14.064;2022-11-06T04:14:57;99036.75;;;0.81
73685;BMP280;61985;51.070;14.064;2022-11-06T04:17:25;99032.13;;;0.78
73685;BMP280;61985;51.070;14.064;2022-11-06T04:19:58;99037.34;;;0.75
73685;BMP280;61985;51.070;14.064;2022-11-06T04:22:37;99040.09;;;0.78
73685;BMP280;61985;51.070;14.064;2022-11-06T04:31:39;99034.09;;;0.65
73685;BMP280;61985;51.070;14.064;2022-11-06T04:34:21;99028.09;;;0.68
73685;BMP280;61985;51.070;14.064;2022-11-06T04:37:05;99023.66;;;0.72
73685;BMP280;61985;51.070;14.064;2022-11-06T04:44:48;99023.66;;;0.72
73685;BMP280;61985;51.070;14.064;2022-11-06T04:47:17;99028.78;;;0.65
73685;BMP280;61985;51.070;14.064;2022-11-06T04:49:43;99021.06;;;0.60
73685;BMP280;61985;51.070;14.064;2022-11-06T04:52:19;99023.31;;;0.74
73685;BMP280;61985;51.070;14.064;2022-11-06T04:54:46;99012.53;;;0.83
73685;BMP280;61985;51.070;14.064;2022-11-06T04:57:12;99015.25;;;0.70
73685;BMP280;61985;51.070;14.064;2022-11-06T04:59:37;99018.41;;;0.60
73685;BMP280;61985;51.070;14.064;2022-11-06T05:02:04;99016.56;;;0.61
73685;BMP280;61985;51.070;14.064;2022-11-06T05:04:30;99014.56;;;0.89
73685;BMP280;61985;51.070;14.064;2022-11-06T05:06:56;99010.22;;;0.81
73685;BMP280;61985;51.070;14.064;2022-11-06T05:09:22;99006.09;;;0.68
73685;BMP280;61985;51.070;14.064;2022-11-06T05:11:47;99002.09;;;0.58
73685;BMP280;61985;51.070;14.064;2022-11-06T05:14:12;99009.78;;;0.63
73685;BMP280;61985;51.070;14.064;2022-11-06T05:16:38;99006.72;;;0.61
73685;BMP280;61985;51.070;14.064;2022-11-06T05:19:03;99017.56;;;0.72
73685;BMP280;61985;51.070;14.064;2022-11-06T05:21:28;99005.50;;;0.59
73685;BMP280;61985;51.070;14.064;2022-11-06T05:24:12;99010.31;;;0.53
73685;BMP280;61985;51.070;14.064;2022-11-06T05:26:38;99010.31;;;0.53
73685;BMP280;61985;51.070;14.064;2022-11-06T05:29:03;99013.38;;;0.55
73685;BMP280;61985;51.070;14.064;2022-11-06T05:31:29;99004.47;;;0.63
73685;BMP280;61985;51.070;14.064;2022-11-06T05:33:54;99001.22;;;0.54
73685;BMP280;61985;51.070;14.064;2022-11-06T05:36:19;98993.94;;;0.51
73685;BMP280;61985;51.070;14.064;2022-11-06T05:38:45;98997.03;;;0.53
73685;BMP280;61985;51.070;14.064;2022-11-06T05:41:10;98999.25;;;0.51
73685;BMP280;61985;51.070;14.064;2022-11-06T05:43:35;99000.13;;;0.55
73685;BMP280;61985;51.070;14.064;2022-11-06T05:46:01;98988.63;;;0.51
73685;BMP280;61985;51.070;14.064;2022-11-06T05:48:27;98988.22;;;0.49
73685;BMP280;61985;51.070;14.064;2022-11-06T05:50:53;98996.59;;;0.51
73685;BMP280;61985;51.070;14.064;2022-11-06T05:53:18;98987.53;;;0.52
73685;BMP280;61985;51.070;14.064;2022-11-06T05:55:46;99000.53;;;0.57
73685;BMP280;61985;51.070;14.064;2022-11-06T05:58:13;98993.19;;;0.66
73685;BMP280;61985;51.070;14.064;2022-11-06T06:00:39;98991.81;;;0.72
73685;BMP280;61985;51.070;14.064;2022-11-06T06:03:04;98994.81;;;0.71
73685;BMP280;61985;51.070;14.064;2022-11-06T06:05:29;98999.34;;;0.70
73685;BMP280;61985;51.070;14.064;2022-11-06T06:07:55;99002.19;;;0.78
73685;BMP280;61985;51.070;14.064;2022-11-06T06:10:20;98994.53;;;0.92
73685;BMP280;61985;51.070;14.064;2022-11-06T06:12:48;98991.72;;;1.01
73685;BMP280;61985;51.070;14.064;2022-11-06T06:15:13;98991.88;;;1.08
73685;BMP280;61985;51.070;14.064;2022-11-06T06:17:39;98996.84;;;1.10
73685;BMP280;61985;51.070;14.064;2022-11-06T06:20:05;98996.13;;;1.13
73685;BMP280;61985;51.070;14.064;2022-11-06T06:22:30;98995.78;;;1.14
73685;BMP280;61985;51.070;14.064;2022-11-06T06:24:56;98995.03;;;1.14
73685;BMP280;61985;51.070;14.064;2022-11-06T06:27:21;99002.03;;;1.22
73685;BMP280;61985;51.070;14.064;2022-11-06T06:29:46;99008.25;;;1.30
73685;BMP280;61985;51.070;14.064;2022-11-06T06:32:12;99013.22;;;1.31
73685;BMP280;61985;51.070;14.064;2022-11-06T06:34:37;99013.91;;;1.28
73685;BMP280;61985;51.070;14.064;2022-11-06T06:37:02;99012.41;;;1.27
73685;BMP280;61985;51.070;14.064;2022-11-06T06:39:28;99017.25;;;1.25
73685;BMP280;61985;51.070;14.064;2022-11-06T06:41:53;99020.72;;;1.25
73685;BMP280;61985;51.070;14.064;2022-11-06T06:44:18;99017.25;;;1.25
73685;BMP280;61985;51.070;14.064;2022-11-06T06:46:44;99019.84;;;1.21
73685;BMP280;61985;51.070;14.064;2022-11-06T06:49:09;99030.19;;;1.26
73685;BMP280;61985;51.070;14.064;2022-11-06T06:51:35;99022.75;;;1.32
73685;BMP280;61985;51.070;14.064;2022-11-06T06:54:00;99024.41;;;1.40
73685;BMP280;61985;51.070;14.064;2022-11-06T06:56:25;99028.91;;;1.56
73685;BMP280;61985;51.070;14.064;2022-11-06T06:58:54;99028.94;;;1.75
73685;BMP280;61985;51.070;14.064;2022-11-06T07:01:19;99039.53;;;1.95
73685;BMP280;61985;51.070;14.064;2022-11-06T07:03:45;99038.81;;;1.98
73685;BMP280;61985;51.070;14.064;2022-11-06T07:06:10;99037.22;;;2.32
73685;BMP280;61985;51.070;14.064;2022-11-06T07:08:36;99046.25;;;2.51
73685;BMP280;61985;51.070;14.064;2022-11-06T07:11:04;99039.16;;;2.59
73685;BMP280;61985;51.070;14.064;2022-11-06T07:13:30;99048.06;;;2.70
73685;BMP280;61985;51.070;14.064;2022-11-06T07:15:55;99048.16;;;2.77
73685;BMP280;61985;51.070;14.064;2022-11-06T07:18:21;99050.63;;;2.89
73685;BMP280;61985;51.070;14.064;2022-11-06T07:20:46;99049.91;;;2.93
73685;BMP280;61985;51.070;14.064;2022-11-06T07:23:13;99056.19;;;3.04
73685;BMP280;61985;51.070;14.064;2022-11-06T07:25:38;99058.28;;;3.18
73685;BMP280;61985;51.070;14.064;2022-11-06T07:28:05;99049.81;;;3.12
73685;BMP280;61985;51.070;14.064;2022-11-06T07:30:32;99053.69;;;3.15
73685;BMP280;61985;51.070;14.064;2022-11-06T07:32:59;99051.06;;;3.18
73685;BMP280;61985;51.070;14.064;2022-11-06T07:35:25;99053.41;;;3.23
73685;BMP280;61985;51.070;14.064;2022-11-06T07:37:50;99058.41;;;3.28
73685;BMP280;61985;51.070;14.064;2022-11-06T07:40:16;99054.22;;;3.27
73685;BMP280;61985;51.070;14.064;2022-11-06T07:42:41;99054.97;;;3.28
73685;BMP280;61985;51.070;14.064;2022-11-06T07:45:07;99047.75;;;3.28
73685;BMP280;61985;51.070;14.064;2022-11-06T07:47:33;99061.84;;;3.29
73685;BMP280;61985;51.070;14.064;2022-11-06T07:49:58;99062.69;;;3.33
73685;BMP280;61985;51.070;14.064;2022-11-06T07:52:24;99054.50;;;3.49
73685;BMP280;61985;51.070;14.064;2022-11-06T07:54:49;99052.66;;;3.53
73685;BMP280;61985;51.070;14.064;2022-11-06T07:57:15;99052.72;;;3.60
73685;BMP280;61985;51.070;14.064;2022-11-06T07:59:40;99055.50;;;3.68
73685;BMP280;61985;51.070;14.064;2022-11-06T08:02:10;99053.59;;;3.68
73685;BMP280;61985;51.070;14.064;2022-11-06T08:04:36;99051.81;;;3.79
73685;BMP280;61985;51.070;14.064;2022-11-06T08:07:02;99050.41;;;3.89
73685;BMP280;61985;51.070;14.064;2022-11-06T08:09:27;99053.09;;;3.93
73685;BMP280;61985;51.070;14.064;2022-11-06T08:11:53;99048.97;;;3.95
73685;BMP280;61985;51.070;14.064;2022-11-06T08:14:18;99045.94;;;4.00
73685;BMP280;61985;51.070;14.064;2022-11-06T08:16:43;99037.28;;;4.11
73685;BMP280;61985;51.070;14.064;2022-11-06T08:19:09;99027.88;;;4.24
73685;BMP280;61985;51.070;14.064;2022-11-06T08:21:34;99040.47;;;4.27
73685;BMP280;61985;51.070;14.064;2022-11-06T08:23:59;99033.38;;;4.38
73685;BMP280;61985;51.070;14.064;2022-11-06T08:26:25;99030.28;;;4.36
73685;BMP280;61985;51.070;14.064;2022-11-06T08:28:50;99040.28;;;4.47
73685;BMP280;61985;51.070;14.064;2022-11-06T08:31:15;99026.63;;;4.55
73685;BMP280;61985;51.070;14.064;2022-11-06T08:33:41;99034.72;;;4.66
73685;BMP280;61985;51.070;14.064;2022-11-06T08:36:07;99024.44;;;4.72
73685;BMP280;61985;51.070;14.064;2022-11-06T08:38:33;99027.94;;;4.80
73685;BMP280;61985;51.070;14.064;2022-11-06T08:41:06;99024.50;;;4.83
73685;BMP280;61985;51.070;14.064;2022-11-06T08:43:32;99015.00;;;4.85
73685;BMP280;61985;51.070;14.064;2022-11-06T08:45:58;99020.41;;;4.96
73685;BMP280;61985;51.070;14.064;2022-11-06T08:48:24;99012.44;;;5.07
73685;BMP280;61985;51.070;14.064;2022-11-06T08:50:49;99021.94;;;5.01
73685;BMP280;61985;51.070;14.064;2022-11-06T08:53:15;99010.59;;;5.15
73685;BMP280;61985;51.070;14.064;2022-11-06T08:55:40;99001.88;;;5.32
73685;BMP280;61985;51.070;14.064;2022-11-06T08:58:06;99004.22;;;5.44
73685;BMP280;61985;51.070;14.064;2022-11-06T09:00:31;99002.69;;;5.50
73685;BMP280;61985;51.070;14.064;2022-11-06T09:02:58;99000.06;;;5.58
73685;BMP280;61985;51.070;14.064;2022-11-06T09:05:24;99002.75;;;5.76
73685;BMP280;61985;51.070;14.064;2022-11-06T09:07:49;98998.56;;;5.78
73685;BMP280;61985;51.070;14.064;2022-11-06T09:10:15;99007.00;;;5.87
73685;BMP280;61985;51.070;14.064;2022-11-06T09:12:40;99002.41;;;5.81
73685;BMP280;61985;51.070;14.064;2022-11-06T09:15:06;99011.56;;;5.76
73685;BMP280;61985;51.070;14.064;2022-11-06T09:17:32;99010.78;;;5.86
73685;BMP280;61985;51.070;14.064;2022-11-06T09:19:57;99007.41;;;5.93
73685;BMP280;61985;51.070;14.064;2022-11-06T09:22:23;99010.84;;;6.01
73685;BMP280;61985;51.070;14.064;2022-11-06T09:24:48;99018.09;;;6.04
73685;BMP280;61985;51.070;14.064;2022-11-06T09:27:13;99010.06;;;6.11
73685;BMP280;61985;51.070;14.064;2022-11-06T09:29:39;99002.84;;;6.22
73685;BMP280;61985;51.070;14.064;2022-11-06T09:32:05;98987.53;;;6.30
73685;BMP280;61985;51.070;14.064;2022-11-06T09:34:31;98997.84;;;6.32
73685;BMP280;61985;51.070;14.064;2022-11-06T09:36:56;99000.91;;;6.41
73685;BMP280;61985;51.070;14.064;2022-11-06T09:39:22;98996.34;;;6.38
73685;BMP280;61985;51.070;14.064;2022-11-06T09:41:53;98994.41;;;6.38
73685;BMP280;61985;51.070;14.064;2022-11-06T09:44:32;98986.34;;;6.49
73685;BMP280;61985;51.070;14.064;2022-11-06T09:47:08;98985.22;;;6.50
73685;BMP280;61985;51.070;14.064;2022-11-06T09:49:38;98978.28;;;6.71
73685;BMP280;61985;51.070;14.064;2022-11-06T09:52:12;98982.09;;;6.70
73685;BMP280;61985;51.070;14.064;2022-11-06T09:54:45;98979.00;;;6.82
73685;BMP280;61985;51.070;14.064;2022-11-06T10:00:02;98982.44;;;6.79
73685;BMP280;61985;51.070;14.064;2022-11-06T10:02:47;98981.69;;;6.89
73685;BMP280;61985;51.070;14.064;2022-11-06T10:07:45;98979.31;;;6.95
73685;BMP280;61985;51.070;14.064;2022-11-06T10:10:16;98971.25;;;7.06
73685;BMP280;61985;51.070;14.064;2022-11-06T10:15:38;98965.13;;;7.12
73685;BMP280;61985;51.070;14.064;2022-11-06T10:18:27;98954.28;;;7.30
73685;BMP280;61985;51.070;14.064;2022-11-06T10:21:01;98959.25;;;7.39
73685;BMP280;61985;51.070;14.064;2022-11-06T10:23:47;98946.97;;;7.42
73685;BMP280;61985;51.070;14.064;2022-11-06T10:26:17;98948.88;;;7.41
73685;BMP280;61985;51.070;14.064;2022-11-06T10:29:09;98941.16;;;7.50
73685;BMP280;61985;51.070;14.064;2022-11-06T10:34:12;98927.63;;;7.68
73685;BMP280;61985;51.070;14.064;2022-11-06T10:36:44;98913.47;;;7.68
73685;BMP280;61985;51.070;14.064;2022-11-06T10:39:21;98913.38;;;7.78
73685;BMP280;61985;51.070;14.064;2022-11-06T10:44:34;98914.75;;;7.94
73685;BMP280;61985;51.070;14.064;2022-11-06T10:47:17;98907.84;;;7.96
73685;BMP280;61985;51.070;14.064;2022-11-06T10:49:50;98907.28;;;8.12
73685;BMP280;61985;51.070;14.064;2022-11-06T10:55:19;98894.25;;;8.14
73685;BMP280;61985;51.070;14.064;2022-11-06T11:00:17;98907.41;;;8.05
73685;BMP280;61985;51.070;14.064;2022-11-06T11:02:48;98890.13;;;8.06
73685;BMP280;61985;51.070;14.064;2022-11-06T11:05:18;98883.97;;;8.09
73685;BMP280;61985;51.070;14.064;2022-11-06T11:07:47;98879.38;;;8.10
73685;BMP280;61985;51.070;14.064;2022-11-06T11:12:49;98887.31;;;8.17
73685;BMP280;61985;51.070;14.064;2022-11-06T11:15:23;98881.47;;;8.26
73685;BMP280;61985;51.070;14.064;2022-11-06T11:54:27;98824.47;;;9.27
73685;BMP280;61985;51.070;14.064;2022-11-06T11:57:36;98821.97;;;9.40
73685;BMP280;61985;51.070;14.064;2022-11-06T12:04:56;98799.09;;;9.91
73685;BMP280;61985;51.070;14.064;2022-11-06T12:07:26;98793.94;;;10.01
73685;BMP280;61985;51.070;14.064;2022-11-06T12:09:53;98790.88;;;10.19
73685;BMP280;61985;51.070;14.064;2022-11-06T12:12:29;98791.09;;;10.28
73685;BMP280;61985;51.070;14.064;2022-11-06T12:17:35;98793.50;;;10.59
73685;BMP280;61985;51.070;14.064;2022-11-06T12:20:04;98779.16;;;10.45
73685;BMP280;61985;51.070;14.064;2022-11-06T12:22:38;98784.72;;;10.55
73685;BMP280;61985;51.070;14.064;2022-11-06T12:27:42;98781.84;;;10.45
73685;BMP280;61985;51.070;14.064;2022-11-06T12:30:17;98781.38;;;10.51
73685;BMP280;61985;51.070;14.064;2022-11-06T12:35:44;98778.66;;;10.51
73685;BMP280;61985;51.070;14.064;2022-11-06T12:40:39;98766.69;;;10.35
73685;BMP280;61985;51.070;14.064;2022-11-06T12:45:56;98753.47;;;10.24
73685;BMP280;61985;51.070;14.064;2022-11-06T12:51:23;98758.81;;;9.88
73685;BMP280;61985;51.070;14.064;2022-11-06T12:53:57;98762.34;;;9.85
73685;BMP280;61985;51.070;14.064;2022-11-06T12:56:37;98752.69;;;9.87
73685;BMP280;61985;51.070;14.064;2022-11-06T13:04:32;98750.00;;;9.67
73685;BMP280;61985;51.070;14.064;2022-11-06T13:09:56;98746.44;;;9.30
73685;BMP280;61985;51.070;14.064;2022-11-06T13:13:32;98747.47;;;9.37
73685;BMP280;61985;51.070;14.064;2022-11-06T13:15:41;98743.97;;;9.40
73685;BMP280;61985;51.070;14.064;2022-11-06T13:20:55;98741.59;;;9.42
73685;BMP280;61985;51.070;14.064;2022-11-06T13:23:29;98743.63;;;9.58
73685;BMP280;61985;51.070;14.064;2022-11-06T13:28:58;98746.06;;;10.28
73685;BMP280;61985;51.070;14.064;2022-11-06T13:31:43;98744.97;;;10.42
73685;BMP280;61985;51.070;14.064;2022-11-06T13:34:17;98744.50;;;10.64
73685;BMP280;61985;51.070;14.064;2022-11-06T13:36:44;98747.59;;;10.62
73685;BMP280;61985;51.070;14.064;2022-11-06T13:39:12;98742.63;;;10.44
73685;BMP280;61985;51.070;14.064;2022-11-06T13:41:39;98728.91;;;10.55
73685;BMP280;61985;51.070;14.064;2022-11-06T13:44:06;98718.72;;;10.46
73685;BMP280;61985;51.070;14.064;2022-11-06T13:49:33;98717.84;;;10.82
73685;BMP280;61985;51.070;14.064;2022-11-06T13:52:15;98717.94;;;10.29
73685;BMP280;61985;51.070;14.064;2022-11-06T13:57:52;98712.91;;;10.48
73685;BMP280;61985;51.070;14.064;2022-11-06T14:06:19;98712.28;;;10.07
73685;BMP280;61985;51.070;14.064;2022-11-06T14:26:49;98696.09;;;9.51
73685;BMP280;61985;51.070;14.064;2022-11-06T14:34:41;98687.91;;;8.94
73685;BMP280;61985;51.070;14.064;2022-11-06T14:42:39;98660.56;;;7.67
73685;BMP280;61985;51.070;14.064;2022-11-06T14:45:19;98656.75;;;7.30
73685;BMP280;61985;51.070;14.064;2022-11-06T14:50:30;98650.81;;;7.12
73685;BMP280;61985;51.070;14.064;2022-11-06T14:53:05;98650.53;;;7.02
73685;BMP280;61985;51.070;14.064;2022-11-06T14:55:44;98649.91;;;6.88
73685;BMP280;61985;51.070;14.064;2022-11-06T14:58:16;98657.59;;;6.82
73685;BMP280;61985;51.070;14.064;2022-11-06T15:00:48;98660.75;;;6.70
73685;BMP280;61985;51.070;14.064;2022-11-06T15:05:47;98653.25;;;6.50
73685;BMP280;61985;51.070;14.064;2022-11-06T15:16:39;98641.22;;;6.13
73685;BMP280;61985;51.070;14.064;2022-11-06T15:19:14;98629.03;;;6.05
73685;BMP280;61985;51.070;14.064;2022-11-06T15:22:04;98625.97;;;6.06
73685;BMP280;61985;51.070;14.064;2022-11-06T15:24:47;98630.19;;;6.00
73685;BMP280;61985;51.070;14.064;2022-11-06T15:27:24;98623.00;;;5.94
73685;BMP280;61985;51.070;14.064;2022-11-06T15:29:53;98614.59;;;5.92
73685;BMP280;61985;51.070;14.064;2022-11-06T15:32:42;98613.47;;;5.82
73685;BMP280;61985;51.070;14.064;2022-11-06T15:37:52;98600.84;;;5.89
73685;BMP280;61985;51.070;14.064;2022-11-06T15:40:40;98597.09;;;5.80
73685;BMP280;61985;51.070;14.064;2022-11-06T15:43:31;98600.47;;;5.91
73685;BMP280;61985;51.070;14.064;2022-11-06T15:46:02;98602.34;;;5.94
73685;BMP280;61985;51.070;14.064;2022-11-06T15:48:31;98589.31;;;6.00
73685;BMP280;61985;51.070;14.064;2022-11-06T16:03:53;98596.94;;;6.05
73685;BMP280;61985;51.070;14.064;2022-11-06T16:06:20;98591.25;;;5.99
73685;BMP280;61985;51.070;14.064;2022-11-06T16:08:46;98599.66;;;5.98
73685;BMP280;61985;51.070;14.064;2022-11-06T16:11:16;98596.97;;;6.01
73685;BMP280;61985;51.070;14.064;2022-11-06T16:13:42;98590.84;;;6.01
73685;BMP280;61985;51.070;14.064;2022-11-06T16:16:39;98594.28;;;6.01
73685;BMP280;61985;51.070;14.064;2022-11-06T16:19:19;98600.38;;;6.02
73685;BMP280;61985;51.070;14.064;2022-11-06T16:21:54;98608.06;;;5.96
73685;BMP280;61985;51.070;14.064;2022-11-06T16:24:21;98610.34;;;5.98
73685;BMP280;61985;51.070;14.064;2022-11-06T16:26:50;98613.84;;;5.95
73685;BMP280;61985;51.070;14.064;2022-11-06T16:31:44;98601.59;;;5.94
73685;BMP280;61985;51.070;14.064;2022-11-06T16:37:11;98592.03;;;5.96
73685;BMP280;61985;51.070;14.064;2022-11-06T16:39:57;98584.03;;;5.89
73685;BMP280;61985;51.070;14.064;2022-11-06T16:42:34;98574.09;;;5.89
73685;BMP280;61985;51.070;14.064;2022-11-06T16:45:17;98572.59;;;5.81
73685;BMP280;61985;51.070;14.064;2022-11-06T16:50:47;98566.56;;;5.66
73685;BMP280;61985;51.070;14.064;2022-11-06T16:53:26;98559.34;;;5.60
73685;BMP280;61985;51.070;14.064;2022-11-06T16:56:12;98558.59;;;5.56
73685;BMP280;61985;51.070;14.064;2022-11-06T16:58:59;98546.78;;;5.53
73685;BMP280;61985;51.070;14.064;2022-11-06T17:01:26;98555.97;;;5.45
73685;BMP280;61985;51.070;14.064;2022-11-06T17:03:57;98553.69;;;5.43
73685;BMP280;61985;51.070;14.064;2022-11-06T17:06:24;98555.22;;;5.48
73685;BMP280;61985;51.070;14.064;2022-11-06T17:11:53;98557.50;;;5.49
73685;BMP280;61985;51.070;14.064;2022-11-06T17:14:19;98536.88;;;5.50
73685;BMP280;61985;51.070;14.064;2022-11-06T17:16:56;98539.16;;;5.51
73685;BMP280;61985;51.070;14.064;2022-11-06T17:19:22;98538.38;;;5.51
73685;BMP280;61985;51.070;14.064;2022-11-06T17:21:48;98542.94;;;5.61
73685;BMP280;61985;51.070;14.064;2022-11-06T17:24:14;98537.22;;;5.56
73685;BMP280;61985;51.070;14.064;2022-11-06T17:26:43;98544.09;;;5.64
73685;BMP280;61985;51.070;14.064;2022-11-06T17:29:09;98546.72;;;5.67
73685;BMP280;61985;51.070;14.064;2022-11-06T17:31:34;98546.75;;;5.64
73685;BMP280;61985;51.070;14.064;2022-11-06T17:34:00;98547.47;;;5.68
73685;BMP280;61985;51.070;14.064;2022-11-06T17:36:27;98543.66;;;5.69
73685;BMP280;61985;51.070;14.064;2022-11-06T17:38:55;98539.06;;;5.69
73685;BMP280;61985;51.070;14.064;2022-11-06T17:41:21;98537.56;;;5.68
73685;BMP280;61985;51.070;14.064;2022-11-06T17:44:04;98527.25;;;5.67
73685;BMP280;61985;51.070;14.064;2022-11-06T17:46:32;98540.97;;;5.73
73685;BMP280;61985;51.070;14.064;2022-11-06T17:48:59;98544.41;;;5.73
73685;BMP280;61985;51.070;14.064;2022-11-06T17:51:25;98537.88;;;5.74
73685;BMP280;61985;51.070;14.064;2022-11-06T17:54:09;98539.78;;;5.77